sensor_id;sensor_type;location;lat;lon;timestamp;pressure;altitude;pressure_sealevel;temperature;humidity
41306;BME280;27051;50.376;19.152;2022-08-19T00:01:50;97649.19;;;24.36;54.66
41306;BME280;27051;50.376;19.152;2022-08-19T00:04:21;97646.30;;;24.35;54.85
41306;BME280;27051;50.376;19.152;2022-08-19T00:06:51;97649.91;;;24.32;54.87
41306;BME280;27051;50.376;19.152;2022-08-19T00:09:19;97641.66;;;24.32;55.00
41306;BME280;27051;50.376;19.152;2022-08-19T00:11:47;97643.98;;;24.34;55.02
41306;BME280;27051;50.376;19.152;2022-08-19T00:14:16;97644.46;;;24.37;55.02
41306;BME280;27051;50.376;19.152;2022-08-19T00:16:45;97642.73;;;24.30;54.91
41306;BME280;27051;50.376;19.152;2022-08-19T00:19:14;97647.13;;;24.28;55.11
41306;BME280;27051;50.376;19.152;2022-08-19T00:21:41;97643.92;;;24.29;55.24
41306;BME280;27051;50.376;19.152;2022-08-19T00:24:11;97645.04;;;24.19;55.23
41306;BME280;27051;50.376;19.152;2022-08-19T00:26:40;97647.23;;;24.24;55.25
41306;BME280;27051;50.376;19.152;2022-08-19T00:29:09;97646.81;;;24.13;55.20
41306;BME280;27051;50.376;19.152;2022-08-19T00:31:38;97643.89;;;23.99;55.35
41306;BME280;27051;50.376;19.152;2022-08-19T00:34:05;97641.48;;;23.88;55.54
41306;BME280;27051;50.376;19.152;2022-08-19T00:36:32;97638.37;;;23.94;55.61
41306;BME280;27051;50.376;19.152;2022-08-19T00:38:59;97645.81;;;23.94;55.66
41306;BME280;27051;50.376;19.152;2022-08-19T00:41:27;97638.26;;;23.85;55.63
41306;BME280;27051;50.376;19.152;2022-08-19T00:44:03;97642.31;;;23.80;55.82
41306;BME280;27051;50.376;19.152;2022-08-19T00:46:33;97633.16;;;23.71;55.93
41306;BME280;27051;50.376;19.152;2022-08-19T00:49:06;97634.66;;;23.67;56.05
41306;BME280;27051;50.376;19.152;2022-08-19T00:51:39;97633.97;;;23.50;56.03
41306;BME280;27051;50.376;19.152;2022-08-19T00:54:08;97632.23;;;23.56;56.30
41306;BME280;27051;50.376;19.152;2022-08-19T00:56:36;97626.84;;;23.66;56.32
41306;BME280;27051;50.376;19.152;2022-08-19T00:59:04;97622.36;;;23.59;56.25
41306;BME280;27051;50.376;19.152;2022-08-19T01:01:31;97621.96;;;23.52;56.35
41306;BME280;27051;50.376;19.152;2022-08-19T01:03:58;97622.92;;;23.46;56.43
41306;BME280;27051;50.376;19.152;2022-08-19T01:06:26;97625.85;;;23.47;56.60
41306;BME280;27051;50.376;19.152;2022-08-19T01:08:55;97619.91;;;23.48;56.55
41306;BME280;27051;50.376;19.152;2022-08-19T01:11:21;97612.30;;;23.48;56.66
41306;BME280;27051;50.376;19.152;2022-08-19T01:13:48;97613.52;;;23.47;56.68
41306;BME280;27051;50.376;19.152;2022-08-19T01:16:19;97615.03;;;23.48;56.66
41306;BME280;27051;50.376;19.152;2022-08-19T01:18:50;97616.13;;;23.37;56.66
41306;BME280;27051;50.376;19.152;2022-08-19T01:21:24;97612.48;;;23.28;56.88
41306;BME280;27051;50.376;19.152;2022-08-19T01:23:52;97609.42;;;23.26;56.89
41306;BME280;27051;50.376;19.152;2022-08-19T01:26:22;97605.59;;;23.15;56.97
41306;BME280;27051;50.376;19.152;2022-08-19T01:28:53;97597.34;;;23.02;57.06
41306;BME280;27051;50.376;19.152;2022-08-19T01:31:25;97599.66;;;22.95;57.17
41306;BME280;27051;50.376;19.152;2022-08-19T01:33:54;97596.35;;;22.88;57.38
41306;BME280;27051;50.376;19.152;2022-08-19T01:36:32;97593.77;;;22.89;57.41
41306;BME280;27051;50.376;19.152;2022-08-19T01:39:03;97592.31;;;22.92;57.39
41306;BME280;27051;50.376;19.152;2022-08-19T01:41:33;97592.24;;;22.88;57.49
41306;BME280;27051;50.376;19.152;2022-08-19T01:44:00;97595.33;;;22.90;57.69
41306;BME280;27051;50.376;19.152;2022-08-19T01:46:28;97595.06;;;22.84;57.65
41306;BME280;27051;50.376;19.152;2022-08-19T01:48:54;97596.24;;;22.91;57.78
41306;BME280;27051;50.376;19.152;2022-08-19T01:51:21;97590.27;;;22.88;57.68
41306;BME280;27051;50.376;19.152;2022-08-19T01:53:49;97594.98;;;22.88;57.76
41306;BME280;27051;50.376;19.152;2022-08-19T01:56:18;97596.23;;;22.70;57.77
41306;BME280;27051;50.376;19.152;2022-08-19T01:58:53;97594.70;;;22.61;58.03
41306;BME280;27051;50.376;19.152;2022-08-19T02:01:22;97595.62;;;22.71;58.13
41306;BME280;27051;50.376;19.152;2022-08-19T02:03:48;97590.64;;;22.74;58.05
41306;BME280;27051;50.376;19.152;2022-08-19T02:06:15;97590.14;;;22.71;58.11
41306;BME280;27051;50.376;19.152;2022-08-19T02:08:42;97578.05;;;22.76;58.16
41306;BME280;27051;50.376;19.152;2022-08-19T02:11:17;97578.39;;;22.79;58.21
41306;BME280;27051;50.376;19.152;2022-08-19T02:13:50;97574.63;;;22.81;58.23
41306;BME280;27051;50.376;19.152;2022-08-19T02:16:18;97575.84;;;22.71;58.15
41306;BME280;27051;50.376;19.152;2022-08-19T02:18:46;97575.03;;;22.58;58.28
41306;BME280;27051;50.376;19.152;2022-08-19T02:21:19;97568.70;;;22.53;58.51
41306;BME280;27051;50.376;19.152;2022-08-19T02:23:47;97571.10;;;22.51;58.57
41306;BME280;27051;50.376;19.152;2022-08-19T02:26:15;97576.09;;;22.40;58.58
41306;BME280;27051;50.376;19.152;2022-08-19T02:28:43;97574.23;;;22.37;58.85
41306;BME280;27051;50.376;19.152;2022-08-19T02:31:16;97569.78;;;22.35;58.71
41306;BME280;27051;50.376;19.152;2022-08-19T02:33:44;97576.45;;;22.25;58.82
41306;BME280;27051;50.376;19.152;2022-08-19T02:36:14;97575.00;;;22.21;58.88
41306;BME280;27051;50.376;19.152;2022-08-19T02:38:43;97584.48;;;22.16;59.08
41306;BME280;27051;50.376;19.152;2022-08-19T02:41:16;97587.38;;;22.17;59.22
41306;BME280;27051;50.376;19.152;2022-08-19T02:43:45;97594.06;;;22.16;59.25
41306;BME280;27051;50.376;19.152;2022-08-19T02:46:22;97594.22;;;22.17;59.32
41306;BME280;27051;50.376;19.152;2022-08-19T02:48:51;97584.64;;;22.17;59.40
41306;BME280;27051;50.376;19.152;2022-08-19T02:51:21;97584.64;;;22.17;59.46
41306;BME280;27051;50.376;19.152;2022-08-19T02:53:49;97588.92;;;22.10;59.56
41306;BME280;27051;50.376;19.152;2022-08-19T02:56:18;97586.02;;;22.09;59.79
41306;BME280;27051;50.376;19.152;2022-08-19T02:58:46;97582.94;;;22.07;59.88
41306;BME280;27051;50.376;19.152;2022-08-19T03:01:34;97584.31;;;22.07;59.84
41306;BME280;27051;50.376;19.152;2022-08-19T03:04:04;97583.63;;;22.11;59.86
41306;BME280;27051;50.376;19.152;2022-08-19T03:06:32;97584.21;;;22.10;59.87
41306;BME280;27051;50.376;19.152;2022-08-19T03:09:00;97585.67;;;22.15;59.97
41306;BME280;27051;50.376;19.152;2022-08-19T03:11:29;97585.00;;;22.11;60.04
41306;BME280;27051;50.376;19.152;2022-08-19T03:13:58;97579.43;;;22.15;60.06
41306;BME280;27051;50.376;19.152;2022-08-19T03:16:28;97575.83;;;22.18;60.18
41306;BME280;27051;50.376;19.152;2022-08-19T03:18:58;97586.78;;;22.18;60.08
41306;BME280;27051;50.376;19.152;2022-08-19T03:21:27;97585.77;;;22.11;60.19
41306;BME280;27051;50.376;19.152;2022-08-19T03:23:58;97589.42;;;22.13;60.27
41306;BME280;27051;50.376;19.152;2022-08-19T03:26:31;97588.84;;;22.14;60.31
41306;BME280;27051;50.376;19.152;2022-08-19T03:29:01;97591.05;;;22.10;60.35
41306;BME280;27051;50.376;19.152;2022-08-19T03:31:30;97586.53;;;22.12;60.33
41306;BME280;27051;50.376;19.152;2022-08-19T03:33:57;97584.66;;;22.09;60.46
41306;BME280;27051;50.376;19.152;2022-08-19T03:36:26;97581.05;;;22.12;60.48
41306;BME280;27051;50.376;19.152;2022-08-19T03:38:56;97585.07;;;22.07;60.44
41306;BME280;27051;50.376;19.152;2022-08-19T03:41:27;97586.55;;;21.96;60.53
41306;BME280;27051;50.376;19.152;2022-08-19T03:43:57;97590.30;;;21.94;60.71
41306;BME280;27051;50.376;19.152;2022-08-19T03:46:30;97582.25;;;21.95;60.75
41306;BME280;27051;50.376;19.152;2022-08-19T03:49:00;97584.31;;;21.99;60.88
41306;BME280;27051;50.376;19.152;2022-08-19T03:51:31;97582.09;;;22.02;60.89
41306;BME280;27051;50.376;19.152;2022-08-19T03:54:01;97582.34;;;21.99;60.85
41306;BME280;27051;50.376;19.152;2022-08-19T03:56:30;97591.40;;;22.13;60.89
41306;BME280;27051;50.376;19.152;2022-08-19T03:58:58;97599.72;;;22.25;60.86
41306;BME280;27051;50.376;19.152;2022-08-19T04:01:28;97600.22;;;22.28;60.63
41306;BME280;27051;50.376;19.152;2022-08-19T04:03:56;97594.67;;;22.32;60.78
41306;BME280;27051;50.376;19.152;2022-08-19T04:06:28;97600.55;;;22.39;60.75
41306;BME280;27051;50.376;19.152;2022-08-19T04:08:57;97597.66;;;22.38;60.59
41306;BME280;27051;50.376;19.152;2022-08-19T04:11:28;97603.91;;;22.30;60.68
41306;BME280;27051;50.376;19.152;2022-08-19T04:14:11;97603.22;;;22.26;60.84
41306;BME280;27051;50.376;19.152;2022-08-19T04:16:40;97610.51;;;22.24;60.91
41306;BME280;27051;50.376;19.152;2022-08-19T04:19:08;97611.17;;;22.28;60.97
41306;BME280;27051;50.376;19.152;2022-08-19T04:21:35;97608.11;;;22.35;61.18
41306;BME280;27051;50.376;19.152;2022-08-19T04:24:03;97614.24;;;22.39;61.18
41306;BME280;27051;50.376;19.152;2022-08-19T04:26:34;97611.94;;;22.45;61.23
41306;BME280;27051;50.376;19.152;2022-08-19T04:29:05;97616.63;;;22.53;61.12
41306;BME280;27051;50.376;19.152;2022-08-19T04:31:34;97611.73;;;22.61;61.05
41306;BME280;27051;50.376;19.152;2022-08-19T04:34:07;97628.91;;;22.69;61.03
41306;BME280;27051;50.376;19.152;2022-08-19T04:36:35;97633.02;;;22.78;60.78
41306;BME280;27051;50.376;19.152;2022-08-19T04:39:07;97634.71;;;22.88;60.74
41306;BME280;27051;50.376;19.152;2022-08-19T04:41:38;97637.08;;;22.94;60.84
41306;BME280;27051;50.376;19.152;2022-08-19T04:44:05;97635.55;;;23.01;60.58
41306;BME280;27051;50.376;19.152;2022-08-19T04:46:32;97636.47;;;23.11;60.81
41306;BME280;27051;50.376;19.152;2022-08-19T04:49:01;97637.38;;;23.21;60.69
41306;BME280;27051;50.376;19.152;2022-08-19T04:51:29;97646.25;;;23.25;60.68
41306;BME280;27051;50.376;19.152;2022-08-19T04:53:55;97645.45;;;23.32;60.49
41306;BME280;27051;50.376;19.152;2022-08-19T04:56:22;97647.30;;;23.44;60.74
41306;BME280;27051;50.376;19.152;2022-08-19T04:58:50;97648.42;;;23.59;60.74
41306;BME280;27051;50.376;19.152;2022-08-19T05:01:24;97655.48;;;23.73;60.75
41306;BME280;27051;50.376;19.152;2022-08-19T05:03:55;97647.19;;;23.81;60.61
41306;BME280;27051;50.376;19.152;2022-08-19T05:06:23;97649.72;;;23.88;60.68
41306;BME280;27051;50.376;19.152;2022-08-19T05:08:51;97650.33;;;24.00;60.56
41306;BME280;27051;50.376;19.152;2022-08-19T05:11:22;97646.20;;;24.13;60.45
41306;BME280;27051;50.376;19.152;2022-08-19T05:13:51;97644.66;;;24.25;60.33
41306;BME280;27051;50.376;19.152;2022-08-19T05:16:20;97644.31;;;24.36;60.03
41306;BME280;27051;50.376;19.152;2022-08-19T05:18:49;97646.30;;;24.48;59.85
41306;BME280;27051;50.376;19.152;2022-08-19T05:21:18;97641.81;;;24.59;59.64
41306;BME280;27051;50.376;19.152;2022-08-19T05:23:46;97639.75;;;24.67;59.46
41306;BME280;27051;50.376;19.152;2022-08-19T05:26:12;97643.48;;;24.74;59.56
41306;BME280;27051;50.376;19.152;2022-08-19T05:28:39;97640.03;;;24.82;59.48
41306;BME280;27051;50.376;19.152;2022-08-19T05:31:07;97641.81;;;24.94;59.50
41306;BME280;27051;50.376;19.152;2022-08-19T05:33:33;97644.18;;;25.04;59.14
41306;BME280;27051;50.376;19.152;2022-08-19T05:36:01;97646.98;;;25.13;58.99
41306;BME280;27051;50.376;19.152;2022-08-19T05:38:29;97648.49;;;25.27;58.70
41306;BME280;27051;50.376;19.152;2022-08-19T05:40:56;97648.56;;;25.37;58.24
41306;BME280;27051;50.376;19.152;2022-08-19T05:43:22;97656.70;;;25.45;58.50
41306;BME280;27051;50.376;19.152;2022-08-19T05:45:49;97659.81;;;25.56;58.37
41306;BME280;27051;50.376;19.152;2022-08-19T05:48:16;97660.34;;;25.68;58.13
41306;BME280;27051;50.376;19.152;2022-08-19T05:50:42;97662.51;;;25.73;57.61
41306;BME280;27051;50.376;19.152;2022-08-19T05:53:09;97659.81;;;25.83;57.59
41306;BME280;27051;50.376;19.152;2022-08-19T05:55:37;97658.36;;;25.95;57.41
41306;BME280;27051;50.376;19.152;2022-08-19T05:58:04;97667.41;;;26.05;56.91
41306;BME280;27051;50.376;19.152;2022-08-19T06:00:31;97670.34;;;26.15;56.80
41306;BME280;27051;50.376;19.152;2022-08-19T06:02:57;97674.20;;;26.23;56.57
41306;BME280;27051;50.376;19.152;2022-08-19T06:05:24;97666.71;;;26.28;56.28
41306;BME280;27051;50.376;19.152;2022-08-19T06:07:51;97661.69;;;26.31;55.63
41306;BME280;27051;50.376;19.152;2022-08-19T06:10:18;97662.47;;;26.36;55.60
41306;BME280;27051;50.376;19.152;2022-08-19T06:12:44;97665.70;;;26.44;55.35
41306;BME280;27051;50.376;19.152;2022-08-19T06:15:13;97663.44;;;26.56;55.67
41306;BME280;27051;50.376;19.152;2022-08-19T06:17:41;97666.98;;;26.70;55.31
41306;BME280;27051;50.376;19.152;2022-08-19T06:20:13;97674.97;;;26.82;54.89
41306;BME280;27051;50.376;19.152;2022-08-19T06:22:43;97672.96;;;26.92;54.26
41306;BME280;27051;50.376;19.152;2022-08-19T06:25:12;97681.39;;;27.06;54.58
41306;BME280;27051;50.376;19.152;2022-08-19T06:27:41;97683.42;;;27.20;54.08
41306;BME280;27051;50.376;19.152;2022-08-19T06:30:09;97677.44;;;27.31;53.99
41306;BME280;27051;50.376;19.152;2022-08-19T06:32:36;97680.78;;;27.44;53.90
41306;BME280;27051;50.376;19.152;2022-08-19T06:35:04;97685.81;;;27.55;53.23
41306;BME280;27051;50.376;19.152;2022-08-19T06:37:32;97683.67;;;27.59;52.88
41306;BME280;27051;50.376;19.152;2022-08-19T06:39:59;97690.70;;;27.64;52.92
41306;BME280;27051;50.376;19.152;2022-08-19T06:42:26;97679.97;;;27.71;52.70
41306;BME280;27051;50.376;19.152;2022-08-19T06:44:53;97674.13;;;27.74;52.51
41306;BME280;27051;50.376;19.152;2022-08-19T06:47:21;97671.50;;;27.75;52.38
41306;BME280;27051;50.376;19.152;2022-08-19T06:49:48;97678.40;;;27.79;52.07
41306;BME280;27051;50.376;19.152;2022-08-19T06:52:15;97676.25;;;27.83;51.85
41306;BME280;27051;50.376;19.152;2022-08-19T06:54:42;97678.56;;;27.85;51.94
41306;BME280;27051;50.376;19.152;2022-08-19T06:57:08;97689.90;;;27.91;51.60
41306;BME280;27051;50.376;19.152;2022-08-19T06:59:35;97703.08;;;27.97;51.44
41306;BME280;27051;50.376;19.152;2022-08-19T07:02:04;97708.91;;;27.99;51.37
41306;BME280;27051;50.376;19.152;2022-08-19T07:04:32;97714.07;;;28.06;51.52
41306;BME280;27051;50.376;19.152;2022-08-19T07:07:08;97715.56;;;28.16;51.25
41306;BME280;27051;50.376;19.152;2022-08-19T07:09:39;97720.14;;;28.24;51.01
41306;BME280;27051;50.376;19.152;2022-08-19T07:12:10;97714.30;;;28.26;50.70
41306;BME280;27051;50.376;19.152;2022-08-19T07:14:42;97711.19;;;28.33;50.92
41306;BME280;27051;50.376;19.152;2022-08-19T07:17:11;97717.02;;;28.45;50.63
41306;BME280;27051;50.376;19.152;2022-08-19T07:19:39;97720.52;;;28.50;50.62
41306;BME280;27051;50.376;19.152;2022-08-19T07:22:07;97716.30;;;28.59;50.54
41306;BME280;27051;50.376;19.152;2022-08-19T07:24:36;97721.36;;;28.65;50.21
41306;BME280;27051;50.376;19.152;2022-08-19T07:27:08;97731.13;;;28.75;50.08
41306;BME280;27051;50.376;19.152;2022-08-19T07:29:34;97739.69;;;28.77;49.76
41306;BME280;27051;50.376;19.152;2022-08-19T07:32:07;97737.06;;;28.83;49.47
41306;BME280;27051;50.376;19.152;2022-08-19T07:34:40;97738.88;;;28.86;49.95
41306;BME280;27051;50.376;19.152;2022-08-19T07:37:07;97746.98;;;28.90;49.52
41306;BME280;27051;50.376;19.152;2022-08-19T07:39:38;97742.66;;;28.98;49.42
41306;BME280;27051;50.376;19.152;2022-08-19T07:42:08;97741.08;;;29.02;49.38
41306;BME280;27051;50.376;19.152;2022-08-19T07:44:36;97745.53;;;29.08;49.22
41306;BME280;27051;50.376;19.152;2022-08-19T07:47:04;97743.92;;;29.16;49.18
41306;BME280;27051;50.376;19.152;2022-08-19T07:49:31;97744.66;;;29.21;49.05
41306;BME280;27051;50.376;19.152;2022-08-19T07:52:07;97744.76;;;29.27;49.18
41306;BME280;27051;50.376;19.152;2022-08-19T07:54:37;97751.02;;;29.32;49.08
41306;BME280;27051;50.376;19.152;2022-08-19T07:57:07;97757.91;;;29.37;48.69
41306;BME280;27051;50.376;19.152;2022-08-19T07:59:34;97761.10;;;29.40;48.51
41306;BME280;27051;50.376;19.152;2022-08-19T08:02:02;97760.77;;;29.42;48.38
41306;BME280;27051;50.376;19.152;2022-08-19T08:04:30;97762.42;;;29.49;48.54
41306;BME280;27051;50.376;19.152;2022-08-19T08:06:57;97761.89;;;29.55;48.34
41306;BME280;27051;50.376;19.152;2022-08-19T08:09:34;97763.38;;;29.61;48.66
41306;BME280;27051;50.376;19.152;2022-08-19T08:12:06;97762.41;;;29.69;48.77
41306;BME280;27051;50.376;19.152;2022-08-19T08:14:34;97767.11;;;29.77;48.70
41306;BME280;27051;50.376;19.152;2022-08-19T08:17:07;97768.58;;;29.83;48.42
41306;BME280;27051;50.376;19.152;2022-08-19T08:19:35;97771.45;;;29.89;48.30
41306;BME280;27051;50.376;19.152;2022-08-19T08:22:03;97772.66;;;29.92;48.38
41306;BME280;27051;50.376;19.152;2022-08-19T08:24:31;97774.75;;;29.97;48.07
41306;BME280;27051;50.376;19.152;2022-08-19T08:27:00;97773.30;;;30.02;47.73
41306;BME280;27051;50.376;19.152;2022-08-19T08:29:29;97772.62;;;30.07;47.86
41306;BME280;27051;50.376;19.152;2022-08-19T08:31:56;97765.48;;;30.15;47.62
41306;BME280;27051;50.376;19.152;2022-08-19T08:34:24;97768.91;;;30.25;47.50
41306;BME280;27051;50.376;19.152;2022-08-19T08:36:51;97764.94;;;30.36;47.03
41306;BME280;27051;50.376;19.152;2022-08-19T08:39:20;97765.15;;;30.43;46.95
41306;BME280;27051;50.376;19.152;2022-08-19T08:44:40;97765.77;;;30.78;46.84
41306;BME280;27051;50.376;19.152;2022-08-19T08:47:21;97761.47;;;31.02;46.67
41306;BME280;27051;50.376;19.152;2022-08-19T08:52:39;97752.83;;;31.51;45.88
41306;BME280;27051;50.376;19.152;2022-08-19T08:55:17;97755.75;;;31.78;45.49
41306;BME280;27051;50.376;19.152;2022-08-19T09:00:25;97757.02;;;32.40;44.72
41306;BME280;27051;50.376;19.152;2022-08-19T09:02:50;97758.32;;;32.82;44.61
41306;BME280;27051;50.376;19.152;2022-08-19T09:05:19;97752.06;;;33.26;42.95
41306;BME280;27051;50.376;19.152;2022-08-19T09:08:02;97739.52;;;33.59;42.72
41306;BME280;27051;50.376;19.152;2022-08-19T09:10:46;97734.45;;;33.97;41.64
41306;BME280;27051;50.376;19.152;2022-08-19T09:16:03;97733.80;;;34.59;39.78
41306;BME280;27051;50.376;19.152;2022-08-19T09:18:46;97731.89;;;35.01;39.06
41306;BME280;27051;50.376;19.152;2022-08-19T09:21:16;97728.01;;;35.44;38.06
41306;BME280;27051;50.376;19.152;2022-08-19T09:23:43;97724.12;;;35.59;37.18
41306;BME280;27051;50.376;19.152;2022-08-19T09:26:12;97725.66;;;35.31;36.80
41306;BME280;27051;50.376;19.152;2022-08-19T09:28:42;97725.66;;;35.31;36.80
41306;BME280;27051;50.376;19.152;2022-08-19T09:31:12;97720.87;;;34.91;36.92
41306;BME280;27051;50.376;19.152;2022-08-19T09:33:41;97727.19;;;34.56;36.59
41306;BME280;27051;50.376;19.152;2022-08-19T09:36:10;97733.70;;;34.24;37.29
41306;BME280;27051;50.376;19.152;2022-08-19T09:38:39;97740.03;;;33.97;36.79
41306;BME280;27051;50.376;19.152;2022-08-19T09:41:12;97740.65;;;33.68;37.00
41306;BME280;27051;50.376;19.152;2022-08-19T09:43:44;97739.08;;;33.50;37.21
41306;BME280;27051;50.376;19.152;2022-08-19T09:46:12;97734.61;;;33.31;37.19
41306;BME280;27051;50.376;19.152;2022-08-19T09:48:41;97738.89;;;33.21;37.78
41306;BME280;27051;50.376;19.152;2022-08-19T09:51:11;97740.49;;;33.12;37.98
41306;BME280;27051;50.376;19.152;2022-08-19T09:53:39;97735.04;;;33.13;37.88
41306;BME280;27051;50.376;19.152;2022-08-19T09:56:07;97743.65;;;33.09;37.86
41306;BME280;27051;50.376;19.152;2022-08-19T09:58:35;97736.84;;;33.16;37.50
41306;BME280;27051;50.376;19.152;2022-08-19T10:01:04;97743.66;;;33.15;36.76
41306;BME280;27051;50.376;19.152;2022-08-19T10:03:33;97736.22;;;33.22;37.17
41306;BME280;27051;50.376;19.152;2022-08-19T10:06:03;97745.55;;;33.46;36.56
41306;BME280;27051;50.376;19.152;2022-08-19T10:08:34;97742.05;;;33.68;37.05
41306;BME280;27051;50.376;19.152;2022-08-19T10:11:03;97739.91;;;33.96;36.91
41306;BME280;27051;50.376;19.152;2022-08-19T10:13:31;97734.23;;;34.23;36.35
41306;BME280;27051;50.376;19.152;2022-08-19T10:16:05;97740.24;;;34.55;36.08
41306;BME280;27051;50.376;19.152;2022-08-19T10:18:34;97741.28;;;35.04;35.41
41306;BME280;27051;50.376;19.152;2022-08-19T10:21:08;97735.81;;;35.52;34.77
41306;BME280;27051;50.376;19.152;2022-08-19T10:23:47;97733.42;;;35.91;34.33
41306;BME280;27051;50.376;19.152;2022-08-19T10:26:19;97728.97;;;36.37;34.22
41306;BME280;27051;50.376;19.152;2022-08-19T10:28:49;97735.29;;;36.99;33.35
41306;BME280;27051;50.376;19.152;2022-08-19T10:31:18;97731.09;;;37.49;32.50
41306;BME280;27051;50.376;19.152;2022-08-19T10:33:51;97729.72;;;38.13;32.28
41306;BME280;27051;50.376;19.152;2022-08-19T10:36:21;97730.31;;;38.85;30.37
41306;BME280;27051;50.376;19.152;2022-08-19T10:38:50;97730.83;;;39.37;30.03
41306;BME280;27051;50.376;19.152;2022-08-19T10:41:21;97729.25;;;39.83;29.88
41306;BME280;27051;50.376;19.152;2022-08-19T10:43:58;97724.17;;;40.17;28.83
41306;BME280;27051;50.376;19.152;2022-08-19T10:46:28;97733.36;;;40.53;27.46
41306;BME280;27051;50.376;19.152;2022-08-19T10:48:55;97736.91;;;40.74;27.12
41306;BME280;27051;50.376;19.152;2022-08-19T10:51:22;97727.93;;;41.06;26.90
41306;BME280;27051;50.376;19.152;2022-08-19T10:53:49;97724.69;;;41.38;26.29
41306;BME280;27051;50.376;19.152;2022-08-19T10:56:18;97723.92;;;41.75;26.03
41306;BME280;27051;50.376;19.152;2022-08-19T10:58:45;97725.20;;;42.11;25.33
41306;BME280;27051;50.376;19.152;2022-08-19T11:01:12;97710.41;;;42.42;24.45
41306;BME280;27051;50.376;19.152;2022-08-19T11:03:38;97719.37;;;42.79;24.47
41306;BME280;27051;50.376;19.152;2022-08-19T11:06:07;97713.20;;;43.13;24.40
41306;BME280;27051;50.376;19.152;2022-08-19T11:08:35;97700.52;;;43.63;24.05
41306;BME280;27051;50.376;19.152;2022-08-19T11:11:05;97706.25;;;44.14;23.53
41306;BME280;27051;50.376;19.152;2022-08-19T11:13:35;97698.13;;;44.35;22.90
41306;BME280;27051;50.376;19.152;2022-08-19T11:18:38;97686.20;;;45.06;22.26
41306;BME280;27051;50.376;19.152;2022-08-19T11:21:11;97688.91;;;45.50;22.09
41306;BME280;27051;50.376;19.152;2022-08-19T11:23:43;97691.39;;;45.91;21.38
41306;BME280;27051;50.376;19.152;2022-08-19T11:26:12;97685.42;;;46.25;21.01
41306;BME280;27051;50.376;19.152;2022-08-19T11:28:40;97684.19;;;46.66;20.30
41306;BME280;27051;50.376;19.152;2022-08-19T11:31:17;97680.46;;;46.93;20.20
41306;BME280;27051;50.376;19.152;2022-08-19T11:33:46;97678.84;;;46.70;19.29
41306;BME280;27051;50.376;19.152;2022-08-19T11:36:14;97680.17;;;46.69;19.56
41306;BME280;27051;50.376;19.152;2022-08-19T11:38:41;97685.17;;;46.50;19.63
41306;BME280;27051;50.376;19.152;2022-08-19T11:41:08;97675.84;;;45.83;19.89
41306;BME280;27051;50.376;19.152;2022-08-19T11:43:36;97673.84;;;45.12;20.08
41306;BME280;27051;50.376;19.152;2022-08-19T11:46:10;97664.40;;;44.47;20.27
41306;BME280;27051;50.376;19.152;2022-08-19T11:48:37;97669.45;;;43.89;20.71
41306;BME280;27051;50.376;19.152;2022-08-19T11:51:08;97673.52;;;43.37;21.21
41306;BME280;27051;50.376;19.152;2022-08-19T11:53:38;97673.92;;;43.09;21.31
41306;BME280;27051;50.376;19.152;2022-08-19T11:56:07;97678.77;;;42.83;22.23
41306;BME280;27051;50.376;19.152;2022-08-19T11:58:35;97674.31;;;42.57;21.76
41306;BME280;27051;50.376;19.152;2022-08-19T12:01:11;97683.47;;;42.41;21.84
41306;BME280;27051;50.376;19.152;2022-08-19T12:03:39;97680.05;;;42.58;22.02
41306;BME280;27051;50.376;19.152;2022-08-19T12:06:09;97676.39;;;43.29;21.79
41306;BME280;27051;50.376;19.152;2022-08-19T12:08:37;97681.27;;;43.61;21.74
41306;BME280;27051;50.376;19.152;2022-08-19T12:11:05;97681.30;;;43.95;21.95
41306;BME280;27051;50.376;19.152;2022-08-19T12:13:42;97678.48;;;44.55;21.37
41306;BME280;27051;50.376;19.152;2022-08-19T12:16:11;97681.73;;;44.60;21.18
41306;BME280;27051;50.376;19.152;2022-08-19T12:18:41;97679.25;;;44.38;21.64
41306;BME280;27051;50.376;19.152;2022-08-19T12:21:10;97677.86;;;43.79;21.11
41306;BME280;27051;50.376;19.152;2022-08-19T12:23:37;97678.20;;;42.77;21.51
41306;BME280;27051;50.376;19.152;2022-08-19T12:26:04;97681.25;;;41.86;21.65
41306;BME280;27051;50.376;19.152;2022-08-19T12:28:31;97677.84;;;40.97;21.92
41306;BME280;27051;50.376;19.152;2022-08-19T12:30:58;97671.19;;;40.29;22.45
41306;BME280;27051;50.376;19.152;2022-08-19T12:33:26;97674.66;;;39.72;23.13
41306;BME280;27051;50.376;19.152;2022-08-19T12:35:52;97681.17;;;39.33;23.46
41306;BME280;27051;50.376;19.152;2022-08-19T12:38:20;97677.28;;;39.01;23.94
41306;BME280;27051;50.376;19.152;2022-08-19T12:40:48;97668.86;;;38.75;24.23
41306;BME280;27051;50.376;19.152;2022-08-19T12:43:15;97670.08;;;38.73;24.54
41306;BME280;27051;50.376;19.152;2022-08-19T12:45:42;97665.96;;;38.80;24.69
41306;BME280;27051;50.376;19.152;2022-08-19T12:48:09;97669.95;;;38.98;24.89
41306;BME280;27051;50.376;19.152;2022-08-19T12:50:35;97670.61;;;39.60;25.06
41306;BME280;27051;50.376;19.152;2022-08-19T12:53:02;97661.34;;;39.72;24.70
41306;BME280;27051;50.376;19.152;2022-08-19T12:55:29;97660.45;;;39.78;24.85
41306;BME280;27051;50.376;19.152;2022-08-19T12:57:56;97660.31;;;39.62;25.00
41306;BME280;27051;50.376;19.152;2022-08-19T13:00:24;97659.31;;;39.45;24.87
41306;BME280;27051;50.376;19.152;2022-08-19T13:02:52;97645.98;;;39.18;24.98
41306;BME280;27051;50.376;19.152;2022-08-19T13:05:22;97646.73;;;38.91;25.03
41306;BME280;27051;50.376;19.152;2022-08-19T13:07:52;97636.56;;;38.81;25.49
41306;BME280;27051;50.376;19.152;2022-08-19T13:10:20;97625.69;;;39.46;25.36
41306;BME280;27051;50.376;19.152;2022-08-19T13:12:50;97634.26;;;40.69;24.69
41306;BME280;27051;50.376;19.152;2022-08-19T13:15:19;97629.41;;;42.53;24.21